Zagreb — 9AA5910 — position and weather

sailwx.info

Track history (hours):
 
Tides and Currents Weather Stations Pressure Air Temp Water Temp Dewpoint Dewpoint Depression Visibility Wind Speed Wind Dir Waves Ship Positions

Zagreb

Last reported at 2017-Feb-23 11:06 UTC. Time now 2017-Feb-23 11:45 UTC.
Position N 50°27' W 000°29'.

Length 229 m; draft 14.5 m.

Type: Cargo ship. MMSI: 238249000.

Date/timePositionNaut miles runAvg speedWind from/ knotsBaromVisibWave heightAir tempDewpointWater temp
2017-Feb-23 11:06N 50°27' W 000°29'5 9.3
2017-Feb-23 10:33N 50°28' W 000°22'9 9.0
2017-Feb-23 09:33N 50°31' W 000°08'9 8.7
2017-Feb-23 08:33N 50°33' E 000°05'9 8.8
2017-Feb-23 07:33N 50°35' E 000°18'9 8.5
2017-Feb-23 06:33N 50°38' E 000°31'9 9.2
2017-Feb-23 05:33N 50°42' E 000°44'1010.2
2017-Feb-23 04:32N 50°48' E 000°57'1111.1
2017-Feb-23 03:33N 50°55' E 001°11'1111.4
2017-Feb-23 02:33N 51°03' E 001°24'1110.8
2017-Feb-23 01:34N 51°09' E 001°37'10 9.9
2017-Feb-23 00:33N 51°17' E 001°48'1010.2
2017-Feb-22 23:33N 51°26' E 001°55'10 9.8
2017-Feb-22 22:33N 51°33' E 002°06'468 9.7
2017-Feb-20 22:32N 57°50' E 010°06'9 9.5
2017-Feb-20 21:33N 57°50' E 010°23'10 9.8
2017-Feb-20 20:33N 57°50' E 010°42'8 8.3
2017-Feb-20 19:33N 57°42' E 010°47'9 9.5
2017-Feb-20 18:33N 57°38' E 011°03'1111.5
2017-Feb-20 17:33N 57°31' E 011°20'1110.9
2017-Feb-20 16:33N 57°21' E 011°30'1110.9
2017-Feb-20 15:33N 57°11' E 011°37'121 9.3
2017-Feb-20 02:34N 55°11' E 011°05'10 9.8
2017-Feb-20 01:33N 55°01' E 011°02'10 9.8
2017-Feb-20 00:33N 54°54' E 010°51'9 9.3
2017-Feb-19 23:33N 54°45' E 010°47'8 7.7
2017-Feb-19 22:33N 54°38' E 010°54'1010.1
2017-Feb-19 21:33N 54°36' E 011°11'1010.3
2017-Feb-19 20:33N 54°32' E 011°27'1111.1
2017-Feb-19 19:33N 54°27' E 011°45'1111.1
2017-Feb-19 18:33N 54°27' E 012°04'9 9.3
2017-Feb-19 17:33N 54°33' E 012°15'1010.4
2017-Feb-19 16:33N 54°40' E 012°28'4210.4
2017-Feb-19 12:30N 54°58' E 013°35'1011.1
2017-Feb-19 11:33N 55°02' E 013°52'1111.1
2017-Feb-19 10:33N 55°07' E 014°09'1111.1
2017-Feb-19 09:32N 55°16' E 014°22'1111.1
2017-Feb-19 08:33N 55°24' E 014°33'1110.8
2017-Feb-19 07:33N 55°30' E 014°50'1111.1
2017-Feb-19 06:33N 55°35' E 015°07'1111.0
2017-Feb-19 05:33N 55°40' E 015°25'1110.9
2017-Feb-19 04:33N 55°42' E 015°43'1111.0
2017-Feb-19 03:33N 55°45' E 016°02'1111.0
2017-Feb-19 02:34N 55°48' E 016°21'1111.0
2017-Feb-19 01:33N 55°51' E 016°40'30911.3
2017-Feb-17 22:20N 59°37' E 023°13'1012.1
2017-Feb-17 21:33N 59°40' E 023°31'1312.2
2017-Feb-17 20:31N 59°43' E 023°55'6112.0
2017-Feb-17 15:28N 59°56' E 025°53'1212.0
2017-Feb-17 14:30N 59°59' E 026°16'1111.8
2017-Feb-17 13:33N 60°01' E 026°37'1311.7
2017-Feb-17 12:26N 59°59' E 027°03'1112.1
2017-Feb-17 11:29N 60°05' E 027°23'1112.1
2017-Feb-17 10:33N 60°11' E 027°42'1010.2
2017-Feb-17 09:33N 60°10' E 028°02'9 7.7
2017-Feb-17 08:21N 60°07' E 028°20'7 8.3
2017-Feb-17 07:33N 60°03' E 028°31'7 7.3
2017-Feb-17 06:33N 59°56' E 028°36'3 2.5
2017-Feb-17 05:33N 59°55' E 028°32'10 9.6
2017-Feb-17 04:33N 59°46' E 028°25'4 4.4
2017-Feb-17 03:33N 59°41' E 028°26'0 0.0
2017-Feb-17 02:24N 59°41' E 028°26'0 0.0
2017-Feb-17 01:27N 59°41' E 028°26'0 0.0
2017-Feb-17 00:27N 59°41' E 028°26'0 0.0
2017-Feb-16 23:27N 59°41' E 028°26'0 0.0
2017-Feb-16 22:27N 59°41' E 028°26'0 0.0
2017-Feb-16 21:30N 59°41' E 028°26'0 0.0
2017-Feb-16 20:31N 59°41' E 028°26'0 0.0
2017-Feb-16 19:18N 59°41' E 028°26'0 0.0
2017-Feb-16 18:33N 59°41' E 028°26'0 0.0
2017-Feb-16 17:33N 59°41' E 028°26'0 0.0
2017-Feb-16 16:33N 59°41' E 028°26'0 0.0
2017-Feb-16 15:33N 59°41' E 028°26'0 0.0
2017-Feb-16 14:33N 59°41' E 028°26'0 0.0
2017-Feb-16 13:33N 59°41' E 028°26'0 0.0
2017-Feb-16 12:33N 59°41' E 028°26'0 0.0
2017-Feb-16 11:33N 59°41' E 028°26'0 0.0
2017-Feb-16 10:24N 59°41' E 028°26'0 0.0
2017-Feb-16 09:27N 59°41' E 028°26'0 0.0
2017-Feb-16 08:27N 59°41' E 028°26'0 0.0
2017-Feb-16 07:30N 59°41' E 028°26'0 0.0
2017-Feb-16 06:30N 59°41' E 028°26'0 0.0
2017-Feb-16 05:30N 59°41' E 028°26'0 0.0
2017-Feb-16 04:30N 59°41' E 028°26'0 0.0
2017-Feb-16 03:33N 59°41' E 028°26'0 0.0
2017-Feb-16 02:33N 59°41' E 028°26'0 0.0
2017-Feb-16 01:33N 59°41' E 028°26'0 0.0
2017-Feb-16 00:33N 59°41' E 028°26'0 0.0
2017-Feb-15 23:33N 59°41' E 028°26'0 0.0
2017-Feb-15 22:33N 59°41' E 028°26'0 0.0
2017-Feb-15 21:33N 59°41' E 028°26'0 0.0
2017-Feb-15 20:27N 59°41' E 028°26'0 0.0
2017-Feb-15 19:27N 59°41' E 028°26'0 0.0
2017-Feb-15 18:27N 59°41' E 028°26'0 0.0
2017-Feb-15 17:27N 59°41' E 028°26'0 0.0
2017-Feb-15 16:30N 59°41' E 028°26'0 0.0
2017-Feb-15 15:27N 59°41' E 028°26'0 0.0
2017-Feb-15 14:27N 59°41' E 028°26'0 0.0
2017-Feb-15 13:33N 59°41' E 028°26'0 0.0
2017-Feb-15 12:30N 59°41' E 028°26'0 0.0
2017-Feb-15 11:33N 59°41' E 028°26'0 0.0
2017-Feb-15 10:33N 59°41' E 028°26'0 0.0
2017-Feb-15 09:33N 59°41' E 028°26'0 0.0
2017-Feb-15 08:33N 59°41' E 028°26'0 0.0
2017-Feb-15 07:33N 59°41' E 028°26'0 0.0
2017-Feb-15 06:33N 59°41' E 028°26'0 0.0
2017-Feb-15 05:33N 59°41' E 028°26'0 0.0
2017-Feb-15 04:27N 59°41' E 028°26'0 0.0
2017-Feb-15 03:27N 59°41' E 028°26'0 0.0
2017-Feb-15 02:27N 59°41' E 028°26'0 0.0
2017-Feb-15 01:30N 59°41' E 028°26'0 0.0
2017-Feb-15 00:30N 59°41' E 028°26'0 0.0
2017-Feb-14 23:30N 59°41' E 028°26'0 0.0
2017-Feb-14 22:30N 59°41' E 028°26'0 0.0
2017-Feb-14 21:33N 59°41' E 028°26'0 0.0
2017-Feb-14 20:33N 59°41' E 028°26'0 0.0
2017-Feb-14 19:33N 59°41' E 028°26'0 0.0
2017-Feb-14 18:33N 59°41' E 028°26'0 0.0
2017-Feb-14 17:33N 59°41' E 028°26'0 0.0
2017-Feb-14 16:33N 59°41' E 028°26'0 0.0
2017-Feb-14 15:33N 59°41' E 028°26'0 0.0
2017-Feb-14 14:33N 59°41' E 028°26'0 0.0
2017-Feb-14 13:24N 59°41' E 028°26'0 0.0
2017-Feb-14 12:27N 59°41' E 028°26'0 0.0
2017-Feb-14 11:27N 59°41' E 028°26'0 0.0
2017-Feb-14 10:30N 59°41' E 028°26'0 0.0
2017-Feb-14 09:30N 59°41' E 028°26'0 0.0
2017-Feb-14 08:30N 59°41' E 028°26'0 0.0
2017-Feb-14 07:33N 59°41' E 028°26'0 0.0
2017-Feb-14 06:33N 59°41' E 028°26'0 0.0
2017-Feb-14 05:33N 59°41' E 028°26'0 0.0
2017-Feb-14 04:33N 59°41' E 028°26'0 0.0
2017-Feb-14 03:33N 59°41' E 028°26'0 0.0
2017-Feb-14 02:33N 59°41' E 028°26'0 0.0
2017-Feb-14 01:33N 59°41' E 028°26'0 0.0
2017-Feb-14 00:33N 59°41' E 028°26'0 0.0
2017-Feb-13 23:21N 59°41' E 028°26'0 0.0
2017-Feb-13 22:27N 59°41' E 028°26'0 0.0
2017-Feb-13 21:27N 59°41' E 028°26'0 0.0
2017-Feb-13 20:27N 59°41' E 028°26'0 0.0
2017-Feb-13 19:27N 59°41' E 028°26'0 0.0
2017-Feb-13 18:30N 59°41' E 028°26'0 0.0
2017-Feb-13 17:30N 59°41' E 028°26'0 0.0
2017-Feb-13 16:33N 59°41' E 028°26'0 0.0
2017-Feb-13 15:33N 59°41' E 028°26'0 0.0
2017-Feb-13 14:33N 59°41' E 028°26'0 0.0
2017-Feb-13 13:33N 59°41' E 028°26'0 0.0
2017-Feb-13 12:33N 59°41' E 028°26'0 0.0
2017-Feb-13 11:33N 59°41' E 028°26'  
Track history (hours):
 
Tides and Currents Weather Stations Pressure Air Temp Water Temp Dewpoint Dewpoint Depression Visibility Wind Speed Wind Dir Waves Ship Positions

Zagreb

Last reported at 2017-Feb-23 11:06 UTC. Time now 2017-Feb-23 11:45 UTC.
Position N 50°27' W 000°29'.

Length 229 m; draft 14.5 m.

Type: Cargo ship. MMSI: 238249000.

Date/timePositionNaut miles runAvg speedWind from/ knotsBaromVisibWave heightAir tempDewpointWater temp
2017-Feb-23 11:06N 50°27' W 000°29'5 9.3
2017-Feb-23 10:33N 50°28' W 000°22'9 9.0
2017-Feb-23 09:33N 50°31' W 000°08'9 8.7
2017-Feb-23 08:33N 50°33' E 000°05'9 8.8
2017-Feb-23 07:33N 50°35' E 000°18'9 8.5
2017-Feb-23 06:33N 50°38' E 000°31'9 9.2
2017-Feb-23 05:33N 50°42' E 000°44'1010.2
2017-Feb-23 04:32N 50°48' E 000°57'1111.1
2017-Feb-23 03:33N 50°55' E 001°11'1111.4
2017-Feb-23 02:33N 51°03' E 001°24'1110.8
2017-Feb-23 01:34N 51°09' E 001°37'10 9.9
2017-Feb-23 00:33N 51°17' E 001°48'1010.2
2017-Feb-22 23:33N 51°26' E 001°55'10 9.8
2017-Feb-22 22:33N 51°33' E 002°06'468 9.7
2017-Feb-20 22:32N 57°50' E 010°06'9 9.5
2017-Feb-20 21:33N 57°50' E 010°23'10 9.8
2017-Feb-20 20:33N 57°50' E 010°42'8 8.3
2017-Feb-20 19:33N 57°42' E 010°47'9 9.5
2017-Feb-20 18:33N 57°38' E 011°03'1111.5
2017-Feb-20 17:33N 57°31' E 011°20'1110.9
2017-Feb-20 16:33N 57°21' E 011°30'1110.9
2017-Feb-20 15:33N 57°11' E 011°37'121 9.3
2017-Feb-20 02:34N 55°11' E 011°05'10 9.8
2017-Feb-20 01:33N 55°01' E 011°02'10 9.8
2017-Feb-20 00:33N 54°54' E 010°51'9 9.3
2017-Feb-19 23:33N 54°45' E 010°47'8 7.7
2017-Feb-19 22:33N 54°38' E 010°54'1010.1
2017-Feb-19 21:33N 54°36' E 011°11'1010.3
2017-Feb-19 20:33N 54°32' E 011°27'1111.1
2017-Feb-19 19:33N 54°27' E 011°45'1111.1
2017-Feb-19 18:33N 54°27' E 012°04'9 9.3
2017-Feb-19 17:33N 54°33' E 012°15'1010.4
2017-Feb-19 16:33N 54°40' E 012°28'4210.4
2017-Feb-19 12:30N 54°58' E 013°35'1011.1
2017-Feb-19 11:33N 55°02' E 013°52'1111.1
2017-Feb-19 10:33N 55°07' E 014°09'1111.1
2017-Feb-19 09:32N 55°16' E 014°22'1111.1
2017-Feb-19 08:33N 55°24' E 014°33'1110.8
2017-Feb-19 07:33N 55°30' E 014°50'1111.1
2017-Feb-19 06:33N 55°35' E 015°07'1111.0
2017-Feb-19 05:33N 55°40' E 015°25'1110.9
2017-Feb-19 04:33N 55°42' E 015°43'1111.0
2017-Feb-19 03:33N 55°45' E 016°02'1111.0
2017-Feb-19 02:34N 55°48' E 016°21'1111.0
2017-Feb-19 01:33N 55°51' E 016°40'30911.3
2017-Feb-17 22:20N 59°37' E 023°13'1012.1
2017-Feb-17 21:33N 59°40' E 023°31'1312.2
2017-Feb-17 20:31N 59°43' E 023°55'6112.0
2017-Feb-17 15:28N 59°56' E 025°53'1212.0
2017-Feb-17 14:30N 59°59' E 026°16'1111.8
2017-Feb-17 13:33N 60°01' E 026°37'1311.7
2017-Feb-17 12:26N 59°59' E 027°03'1112.1
2017-Feb-17 11:29N 60°05' E 027°23'1112.1
2017-Feb-17 10:33N 60°11' E 027°42'1010.2
2017-Feb-17 09:33N 60°10' E 028°02'9 7.7
2017-Feb-17 08:21N 60°07' E 028°20'7 8.3
2017-Feb-17 07:33N 60°03' E 028°31'7 7.3
2017-Feb-17 06:33N 59°56' E 028°36'3 2.5
2017-Feb-17 05:33N 59°55' E 028°32'10 9.6
2017-Feb-17 04:33N 59°46' E 028°25'4 4.4
2017-Feb-17 03:33N 59°41' E 028°26'0 0.0
2017-Feb-17 02:24N 59°41' E 028°26'0 0.0
2017-Feb-17 01:27N 59°41' E 028°26'0 0.0
2017-Feb-17 00:27N 59°41' E 028°26'0 0.0
2017-Feb-16 23:27N 59°41' E 028°26'0 0.0
2017-Feb-16 22:27N 59°41' E 028°26'0 0.0
2017-Feb-16 21:30N 59°41' E 028°26'0 0.0
2017-Feb-16 20:31N 59°41' E 028°26'0 0.0
2017-Feb-16 19:18N 59°41' E 028°26'0 0.0
2017-Feb-16 18:33N 59°41' E 028°26'0 0.0
2017-Feb-16 17:33N 59°41' E 028°26'0 0.0
2017-Feb-16 16:33N 59°41' E 028°26'0 0.0
2017-Feb-16 15:33N 59°41' E 028°26'0 0.0
2017-Feb-16 14:33N 59°41' E 028°26'0 0.0
2017-Feb-16 13:33N 59°41' E 028°26'0 0.0
2017-Feb-16 12:33N 59°41' E 028°26'0 0.0
2017-Feb-16 11:33N 59°41' E 028°26'0 0.0
2017-Feb-16 10:24N 59°41' E 028°26'0 0.0
2017-Feb-16 09:27N 59°41' E 028°26'0 0.0
2017-Feb-16 08:27N 59°41' E 028°26'0 0.0
2017-Feb-16 07:30N 59°41' E 028°26'0 0.0
2017-Feb-16 06:30N 59°41' E 028°26'0 0.0
2017-Feb-16 05:30N 59°41' E 028°26'0 0.0
2017-Feb-16 04:30N 59°41' E 028°26'0 0.0
2017-Feb-16 03:33N 59°41' E 028°26'0 0.0
2017-Feb-16 02:33N 59°41' E 028°26'0 0.0
2017-Feb-16 01:33N 59°41' E 028°26'0 0.0
2017-Feb-16 00:33N 59°41' E 028°26'0 0.0
2017-Feb-15 23:33N 59°41' E 028°26'0 0.0
2017-Feb-15 22:33N 59°41' E 028°26'0 0.0
2017-Feb-15 21:33N 59°41' E 028°26'0 0.0
2017-Feb-15 20:27N 59°41' E 028°26'0 0.0
2017-Feb-15 19:27N 59°41' E 028°26'0 0.0
2017-Feb-15 18:27N 59°41' E 028°26'0 0.0
2017-Feb-15 17:27N 59°41' E 028°26'0 0.0
2017-Feb-15 16:30N 59°41' E 028°26'0 0.0
2017-Feb-15 15:27N 59°41' E 028°26'0 0.0
2017-Feb-15 14:27N 59°41' E 028°26'0 0.0
2017-Feb-15 13:33N 59°41' E 028°26'0 0.0
2017-Feb-15 12:30N 59°41' E 028°26'0 0.0
2017-Feb-15 11:33N 59°41' E 028°26'0 0.0
2017-Feb-15 10:33N 59°41' E 028°26'0 0.0
2017-Feb-15 09:33N 59°41' E 028°26'0 0.0
2017-Feb-15 08:33N 59°41' E 028°26'0 0.0
2017-Feb-15 07:33N 59°41' E 028°26'0 0.0
2017-Feb-15 06:33N 59°41' E 028°26'0 0.0
2017-Feb-15 05:33N 59°41' E 028°26'0 0.0
2017-Feb-15 04:27N 59°41' E 028°26'0 0.0
2017-Feb-15 03:27N 59°41' E 028°26'0 0.0
2017-Feb-15 02:27N 59°41' E 028°26'0 0.0
2017-Feb-15 01:30N 59°41' E 028°26'0 0.0
2017-Feb-15 00:30N 59°41' E 028°26'0 0.0
2017-Feb-14 23:30N 59°41' E 028°26'0 0.0
2017-Feb-14 22:30N 59°41' E 028°26'0 0.0
2017-Feb-14 21:33N 59°41' E 028°26'0 0.0
2017-Feb-14 20:33N 59°41' E 028°26'0 0.0
2017-Feb-14 19:33N 59°41' E 028°26'0 0.0
2017-Feb-14 18:33N 59°41' E 028°26'0 0.0
2017-Feb-14 17:33N 59°41' E 028°26'0 0.0
2017-Feb-14 16:33N 59°41' E 028°26'0 0.0
2017-Feb-14 15:33N 59°41' E 028°26'0 0.0
2017-Feb-14 14:33N 59°41' E 028°26'0 0.0
2017-Feb-14 13:24N 59°41' E 028°26'0 0.0
2017-Feb-14 12:27N 59°41' E 028°26'0 0.0
2017-Feb-14 11:27N 59°41' E 028°26'0 0.0
2017-Feb-14 10:30N 59°41' E 028°26'0 0.0
2017-Feb-14 09:30N 59°41' E 028°26'0 0.0
2017-Feb-14 08:30N 59°41' E 028°26'0 0.0
2017-Feb-14 07:33N 59°41' E 028°26'0 0.0
2017-Feb-14 06:33N 59°41' E 028°26'0 0.0
2017-Feb-14 05:33N 59°41' E 028°26'0 0.0
2017-Feb-14 04:33N 59°41' E 028°26'0 0.0
2017-Feb-14 03:33N 59°41' E 028°26'0 0.0
2017-Feb-14 02:33N 59°41' E 028°26'0 0.0
2017-Feb-14 01:33N 59°41' E 028°26'0 0.0
2017-Feb-14 00:33N 59°41' E 028°26'0 0.0
2017-Feb-13 23:21N 59°41' E 028°26'0 0.0
2017-Feb-13 22:27N 59°41' E 028°26'0 0.0
2017-Feb-13 21:27N 59°41' E 028°26'0 0.0
2017-Feb-13 20:27N 59°41' E 028°26'0 0.0
2017-Feb-13 19:27N 59°41' E 028°26'0 0.0
2017-Feb-13 18:30N 59°41' E 028°26'0 0.0
2017-Feb-13 17:30N 59°41' E 028°26'0 0.0
2017-Feb-13 16:33N 59°41' E 028°26'0 0.0
2017-Feb-13 15:33N 59°41' E 028°26'0 0.0
2017-Feb-13 14:33N 59°41' E 028°26'0 0.0
2017-Feb-13 13:33N 59°41' E 028°26'0 0.0
2017-Feb-13 12:33N 59°41' E 028°26'0 0.0
2017-Feb-13 11:33N 59°41' E 028°26'  

Dump ship's entire track history